sensor_id;sensor_type;location;lat;lon;timestamp;P1;durP1;ratioP1;P2;durP2;ratioP2
59824;SDS011;45703;50.898;6.054;2023-07-02T00:00:42;10.98;;;4.38;;
59824;SDS011;45703;50.898;6.054;2023-07-02T00:03:07;11.50;;;4.78;;
59824;SDS011;45703;50.898;6.054;2023-07-02T00:05:32;11.07;;;4.50;;
59824;SDS011;45703;50.898;6.054;2023-07-02T00:07:58;12.02;;;5.18;;
59824;SDS011;45703;50.898;6.054;2023-07-02T00:10:23;12.57;;;5.47;;
59824;SDS011;45703;50.898;6.054;2023-07-02T00:12:48;12.85;;;5.40;;
59824;SDS011;45703;50.898;6.054;2023-07-02T00:15:14;10.18;;;5.20;;
59824;SDS011;45703;50.898;6.054;2023-07-02T00:17:40;12.82;;;5.85;;
59824;SDS011;45703;50.898;6.054;2023-07-02T00:20:06;14.38;;;6.40;;
59824;SDS011;45703;50.898;6.054;2023-07-02T00:22:39;13.02;;;6.05;;
59824;SDS011;45703;50.898;6.054;2023-07-02T00:25:06;13.68;;;6.53;;
59824;SDS011;45703;50.898;6.054;2023-07-02T00:27:32;14.60;;;6.05;;
59824;SDS011;45703;50.898;6.054;2023-07-02T00:29:58;13.88;;;7.13;;
59824;SDS011;45703;50.898;6.054;2023-07-02T00:32:23;13.95;;;6.82;;
59824;SDS011;45703;50.898;6.054;2023-07-02T00:34:49;14.02;;;7.18;;
59824;SDS011;45703;50.898;6.054;2023-07-02T00:37:14;18.23;;;7.15;;
59824;SDS011;45703;50.898;6.054;2023-07-02T00:39:40;15.27;;;6.70;;
59824;SDS011;45703;50.898;6.054;2023-07-02T00:42:05;15.70;;;7.78;;
59824;SDS011;45703;50.898;6.054;2023-07-02T00:44:31;15.48;;;7.32;;
59824;SDS011;45703;50.898;6.054;2023-07-02T00:46:57;15.48;;;7.25;;
59824;SDS011;45703;50.898;6.054;2023-07-02T00:49:23;15.23;;;7.60;;
59824;SDS011;45703;50.898;6.054;2023-07-02T00:51:49;18.05;;;8.45;;
59824;SDS011;45703;50.898;6.054;2023-07-02T00:54:14;16.75;;;8.68;;
59824;SDS011;45703;50.898;6.054;2023-07-02T00:56:39;17.75;;;8.38;;
59824;SDS011;45703;50.898;6.054;2023-07-02T00:59:05;18.23;;;8.90;;
59824;SDS011;45703;50.898;6.054;2023-07-02T01:01:31;18.63;;;8.93;;
59824;SDS011;45703;50.898;6.054;2023-07-02T01:04:03;18.25;;;9.55;;
59824;SDS011;45703;50.898;6.054;2023-07-02T01:06:33;17.30;;;7.68;;
59824;SDS011;45703;50.898;6.054;2023-07-02T01:09:02;16.83;;;9.07;;
59824;SDS011;45703;50.898;6.054;2023-07-02T01:11:30;15.57;;;8.40;;
59824;SDS011;45703;50.898;6.054;2023-07-02T01:14:22;17.63;;;8.88;;
59824;SDS011;45703;50.898;6.054;2023-07-02T01:16:47;17.20;;;8.85;;
59824;SDS011;45703;50.898;6.054;2023-07-02T01:19:38;17.17;;;8.57;;
59824;SDS011;45703;50.898;6.054;2023-07-02T01:22:21;19.73;;;8.52;;
59824;SDS011;45703;50.898;6.054;2023-07-02T01:24:48;17.05;;;8.45;;
59824;SDS011;45703;50.898;6.054;2023-07-02T01:27:15;17.27;;;9.10;;
59824;SDS011;45703;50.898;6.054;2023-07-02T01:29:41;18.23;;;8.93;;
59824;SDS011;45703;50.898;6.054;2023-07-02T01:32:07;18.58;;;9.63;;
59824;SDS011;45703;50.898;6.054;2023-07-02T01:34:36;18.23;;;9.85;;
59824;SDS011;45703;50.898;6.054;2023-07-02T01:37:02;16.88;;;8.98;;
59824;SDS011;45703;50.898;6.054;2023-07-02T01:39:29;17.88;;;9.63;;
59824;SDS011;45703;50.898;6.054;2023-07-02T01:41:55;17.02;;;9.63;;
59824;SDS011;45703;50.898;6.054;2023-07-02T01:44:33;18.98;;;9.38;;
59824;SDS011;45703;50.898;6.054;2023-07-02T01:46:58;18.48;;;9.52;;
59824;SDS011;45703;50.898;6.054;2023-07-02T01:49:24;19.67;;;10.23;;
59824;SDS011;45703;50.898;6.054;2023-07-02T01:51:50;21.13;;;10.90;;
59824;SDS011;45703;50.898;6.054;2023-07-02T01:54:16;18.63;;;9.27;;
59824;SDS011;45703;50.898;6.054;2023-07-02T01:56:42;20.73;;;10.82;;
59824;SDS011;45703;50.898;6.054;2023-07-02T01:59:07;19.80;;;10.02;;
59824;SDS011;45703;50.898;6.054;2023-07-02T02:01:32;18.30;;;9.13;;
59824;SDS011;45703;50.898;6.054;2023-07-02T02:03:58;18.92;;;10.20;;
59824;SDS011;45703;50.898;6.054;2023-07-02T02:06:23;20.13;;;9.80;;
59824;SDS011;45703;50.898;6.054;2023-07-02T02:08:49;18.27;;;10.05;;
59824;SDS011;45703;50.898;6.054;2023-07-02T02:11:15;19.42;;;9.95;;
59824;SDS011;45703;50.898;6.054;2023-07-02T02:13:40;18.35;;;9.95;;
59824;SDS011;45703;50.898;6.054;2023-07-02T02:16:05;19.85;;;10.02;;
59824;SDS011;45703;50.898;6.054;2023-07-02T02:18:31;22.35;;;10.60;;
59824;SDS011;45703;50.898;6.054;2023-07-02T02:20:56;21.83;;;10.10;;
59824;SDS011;45703;50.898;6.054;2023-07-02T02:23:21;18.88;;;10.27;;
59824;SDS011;45703;50.898;6.054;2023-07-02T02:25:47;21.05;;;10.30;;
59824;SDS011;45703;50.898;6.054;2023-07-02T02:28:12;22.48;;;11.15;;
59824;SDS011;45703;50.898;6.054;2023-07-02T02:30:38;23.75;;;10.82;;
59824;SDS011;45703;50.898;6.054;2023-07-02T02:33:03;20.60;;;11.30;;
59824;SDS011;45703;50.898;6.054;2023-07-02T02:35:28;20.98;;;11.05;;
59824;SDS011;45703;50.898;6.054;2023-07-02T02:37:54;20.38;;;10.88;;
59824;SDS011;45703;50.898;6.054;2023-07-02T02:40:19;20.27;;;10.93;;
59824;SDS011;45703;50.898;6.054;2023-07-02T02:42:44;22.48;;;11.55;;
59824;SDS011;45703;50.898;6.054;2023-07-02T02:45:10;20.58;;;10.85;;
59824;SDS011;45703;50.898;6.054;2023-07-02T02:47:35;20.25;;;11.00;;
59824;SDS011;45703;50.898;6.054;2023-07-02T02:50:01;22.67;;;12.68;;
59824;SDS011;45703;50.898;6.054;2023-07-02T02:52:26;21.58;;;11.95;;
59824;SDS011;45703;50.898;6.054;2023-07-02T02:54:51;23.65;;;12.13;;
59824;SDS011;45703;50.898;6.054;2023-07-02T02:57:20;25.98;;;12.52;;
59824;SDS011;45703;50.898;6.054;2023-07-02T02:59:45;24.10;;;12.48;;
59824;SDS011;45703;50.898;6.054;2023-07-02T03:02:11;23.25;;;12.95;;
59824;SDS011;45703;50.898;6.054;2023-07-02T03:04:36;26.45;;;12.10;;
59824;SDS011;45703;50.898;6.054;2023-07-02T03:07:04;25.50;;;13.02;;
59824;SDS011;45703;50.898;6.054;2023-07-02T03:09:33;23.70;;;12.93;;
59824;SDS011;45703;50.898;6.054;2023-07-02T03:11:58;24.42;;;13.00;;
59824;SDS011;45703;50.898;6.054;2023-07-02T03:14:24;23.80;;;12.73;;
59824;SDS011;45703;50.898;6.054;2023-07-02T03:16:49;26.73;;;12.85;;
59824;SDS011;45703;50.898;6.054;2023-07-02T03:19:14;25.48;;;13.50;;
59824;SDS011;45703;50.898;6.054;2023-07-02T03:21:42;28.23;;;13.88;;
59824;SDS011;45703;50.898;6.054;2023-07-02T03:24:08;25.25;;;13.15;;
59824;SDS011;45703;50.898;6.054;2023-07-02T03:26:36;27.45;;;13.88;;
59824;SDS011;45703;50.898;6.054;2023-07-02T03:29:02;27.60;;;13.85;;
59824;SDS011;45703;50.898;6.054;2023-07-02T03:31:27;26.42;;;14.63;;
59824;SDS011;45703;50.898;6.054;2023-07-02T03:33:53;24.08;;;12.80;;
59824;SDS011;45703;50.898;6.054;2023-07-02T03:36:18;29.40;;;14.48;;
59824;SDS011;45703;50.898;6.054;2023-07-02T03:38:43;26.75;;;14.15;;
59824;SDS011;45703;50.898;6.054;2023-07-02T03:41:09;25.98;;;13.60;;
59824;SDS011;45703;50.898;6.054;2023-07-02T03:43:34;26.73;;;14.18;;
59824;SDS011;45703;50.898;6.054;2023-07-02T03:46:00;26.85;;;14.13;;
59824;SDS011;45703;50.898;6.054;2023-07-02T03:48:25;26.80;;;13.88;;
59824;SDS011;45703;50.898;6.054;2023-07-02T03:50:51;27.63;;;14.52;;
59824;SDS011;45703;50.898;6.054;2023-07-02T03:53:16;25.13;;;13.98;;
59824;SDS011;45703;50.898;6.054;2023-07-02T03:55:42;29.75;;;15.63;;
59824;SDS011;45703;50.898;6.054;2023-07-02T03:58:07;26.05;;;14.55;;
59824;SDS011;45703;50.898;6.054;2023-07-02T04:00:32;27.55;;;15.10;;
59824;SDS011;45703;50.898;6.054;2023-07-02T04:02:58;27.08;;;14.88;;
59824;SDS011;45703;50.898;6.054;2023-07-02T04:05:25;28.92;;;14.63;;
59824;SDS011;45703;50.898;6.054;2023-07-02T04:07:51;33.70;;;15.80;;
59824;SDS011;45703;50.898;6.054;2023-07-02T04:10:16;29.45;;;15.65;;
59824;SDS011;45703;50.898;6.054;2023-07-02T04:12:41;31.00;;;15.23;;
59824;SDS011;45703;50.898;6.054;2023-07-02T04:15:07;28.77;;;14.27;;
59824;SDS011;45703;50.898;6.054;2023-07-02T04:17:33;26.60;;;13.55;;
59824;SDS011;45703;50.898;6.054;2023-07-02T04:19:59;27.88;;;14.65;;
59824;SDS011;45703;50.898;6.054;2023-07-02T04:22:25;30.10;;;14.35;;
59824;SDS011;45703;50.898;6.054;2023-07-02T04:24:50;31.67;;;15.13;;
59824;SDS011;45703;50.898;6.054;2023-07-02T04:27:16;30.15;;;14.55;;
59824;SDS011;45703;50.898;6.054;2023-07-02T04:29:44;26.48;;;14.10;;
59824;SDS011;45703;50.898;6.054;2023-07-02T04:32:11;27.80;;;15.38;;
59824;SDS011;45703;50.898;6.054;2023-07-02T04:34:36;26.30;;;14.95;;
59824;SDS011;45703;50.898;6.054;2023-07-02T04:37:05;28.45;;;15.57;;
59824;SDS011;45703;50.898;6.054;2023-07-02T04:39:31;30.00;;;14.75;;
59824;SDS011;45703;50.898;6.054;2023-07-02T04:41:56;30.20;;;15.68;;
59824;SDS011;45703;50.898;6.054;2023-07-02T04:44:22;28.23;;;14.88;;
59824;SDS011;45703;50.898;6.054;2023-07-02T04:46:58;30.00;;;15.32;;
59824;SDS011;45703;50.898;6.054;2023-07-02T04:49:27;32.00;;;16.17;;
59824;SDS011;45703;50.898;6.054;2023-07-02T04:51:52;29.85;;;16.58;;
59824;SDS011;45703;50.898;6.054;2023-07-02T04:54:19;31.27;;;15.48;;
59824;SDS011;45703;50.898;6.054;2023-07-02T04:56:45;31.10;;;16.33;;
59824;SDS011;45703;50.898;6.054;2023-07-02T04:59:11;31.52;;;16.70;;
59824;SDS011;45703;50.898;6.054;2023-07-02T05:01:36;29.35;;;15.80;;
59824;SDS011;45703;50.898;6.054;2023-07-02T05:04:02;29.60;;;16.42;;
59824;SDS011;45703;50.898;6.054;2023-07-02T05:06:27;26.90;;;15.10;;
59824;SDS011;45703;50.898;6.054;2023-07-02T05:08:52;30.17;;;16.17;;
59824;SDS011;45703;50.898;6.054;2023-07-02T05:11:18;29.13;;;14.70;;
59824;SDS011;45703;50.898;6.054;2023-07-02T05:13:43;33.83;;;16.88;;
59824;SDS011;45703;50.898;6.054;2023-07-02T05:16:09;27.60;;;15.10;;
59824;SDS011;45703;50.898;6.054;2023-07-02T05:18:35;31.08;;;16.50;;
59824;SDS011;45703;50.898;6.054;2023-07-02T05:21:01;34.65;;;16.48;;
59824;SDS011;45703;50.898;6.054;2023-07-02T05:23:26;32.20;;;16.40;;
59824;SDS011;45703;50.898;6.054;2023-07-02T05:25:52;30.38;;;16.33;;
59824;SDS011;45703;50.898;6.054;2023-07-02T05:28:17;30.17;;;16.20;;
59824;SDS011;45703;50.898;6.054;2023-07-02T05:30:42;27.52;;;16.02;;
59824;SDS011;45703;50.898;6.054;2023-07-02T05:33:08;33.13;;;17.00;;
59824;SDS011;45703;50.898;6.054;2023-07-02T05:35:33;28.95;;;15.32;;
59824;SDS011;45703;50.898;6.054;2023-07-02T05:37:59;31.08;;;16.95;;
59824;SDS011;45703;50.898;6.054;2023-07-02T05:40:24;31.48;;;16.83;;
59824;SDS011;45703;50.898;6.054;2023-07-02T05:42:49;28.85;;;14.85;;
59824;SDS011;45703;50.898;6.054;2023-07-02T05:45:15;31.05;;;15.95;;
59824;SDS011;45703;50.898;6.054;2023-07-02T05:47:40;34.88;;;16.88;;
59824;SDS011;45703;50.898;6.054;2023-07-02T05:50:07;34.08;;;16.45;;
59824;SDS011;45703;50.898;6.054;2023-07-02T05:52:33;33.63;;;16.65;;
59824;SDS011;45703;50.898;6.054;2023-07-02T05:54:58;31.45;;;16.65;;
59824;SDS011;45703;50.898;6.054;2023-07-02T05:57:23;32.47;;;16.75;;
59824;SDS011;45703;50.898;6.054;2023-07-02T05:59:49;32.13;;;16.80;;
59824;SDS011;45703;50.898;6.054;2023-07-02T06:02:14;33.00;;;17.33;;
59824;SDS011;45703;50.898;6.054;2023-07-02T06:04:39;33.00;;;17.92;;
59824;SDS011;45703;50.898;6.054;2023-07-02T06:07:05;30.88;;;17.13;;
59824;SDS011;45703;50.898;6.054;2023-07-02T06:09:30;32.58;;;17.23;;
59824;SDS011;45703;50.898;6.054;2023-07-02T06:11:57;32.58;;;16.48;;
59824;SDS011;45703;50.898;6.054;2023-07-02T06:14:22;31.80;;;16.25;;
59824;SDS011;45703;50.898;6.054;2023-07-02T06:16:50;28.67;;;16.90;;
59824;SDS011;45703;50.898;6.054;2023-07-02T06:19:16;35.17;;;17.20;;
59824;SDS011;45703;50.898;6.054;2023-07-02T06:21:41;31.83;;;17.60;;
59824;SDS011;45703;50.898;6.054;2023-07-02T06:24:07;30.50;;;17.00;;
59824;SDS011;45703;50.898;6.054;2023-07-02T06:26:32;33.40;;;17.20;;
59824;SDS011;45703;50.898;6.054;2023-07-02T06:28:57;35.03;;;16.30;;
59824;SDS011;45703;50.898;6.054;2023-07-02T06:31:23;34.97;;;17.20;;
59824;SDS011;45703;50.898;6.054;2023-07-02T06:33:49;31.48;;;16.50;;
59824;SDS011;45703;50.898;6.054;2023-07-02T06:36:14;32.80;;;16.30;;
59824;SDS011;45703;50.898;6.054;2023-07-02T06:38:40;36.67;;;17.58;;
59824;SDS011;45703;50.898;6.054;2023-07-02T06:41:05;29.50;;;16.42;;
59824;SDS011;45703;50.898;6.054;2023-07-02T06:43:31;38.28;;;18.08;;
59824;SDS011;45703;50.898;6.054;2023-07-02T06:45:56;35.40;;;17.73;;
59824;SDS011;45703;50.898;6.054;2023-07-02T06:48:21;37.97;;;16.48;;
59824;SDS011;45703;50.898;6.054;2023-07-02T06:50:47;32.08;;;17.05;;
59824;SDS011;45703;50.898;6.054;2023-07-02T06:53:12;37.58;;;17.98;;
59824;SDS011;45703;50.898;6.054;2023-07-02T06:55:38;33.35;;;15.65;;
59824;SDS011;45703;50.898;6.054;2023-07-02T06:58:04;31.80;;;15.77;;
59824;SDS011;45703;50.898;6.054;2023-07-02T07:00:31;28.42;;;16.23;;
59824;SDS011;45703;50.898;6.054;2023-07-02T07:02:58;34.35;;;18.02;;
59824;SDS011;45703;50.898;6.054;2023-07-02T07:05:23;31.02;;;16.85;;
59824;SDS011;45703;50.898;6.054;2023-07-02T07:07:48;32.88;;;16.95;;
59824;SDS011;45703;50.898;6.054;2023-07-02T07:10:14;32.22;;;16.77;;
59824;SDS011;45703;50.898;6.054;2023-07-02T07:12:39;33.97;;;16.95;;
59824;SDS011;45703;50.898;6.054;2023-07-02T07:15:05;29.67;;;16.50;;
59824;SDS011;45703;50.898;6.054;2023-07-02T07:17:30;31.45;;;16.63;;
59824;SDS011;45703;50.898;6.054;2023-07-02T07:19:56;32.97;;;17.02;;
59824;SDS011;45703;50.898;6.054;2023-07-02T07:22:21;34.47;;;16.63;;
59824;SDS011;45703;50.898;6.054;2023-07-02T07:24:46;33.45;;;17.70;;
59824;SDS011;45703;50.898;6.054;2023-07-02T07:27:12;35.80;;;17.55;;
59824;SDS011;45703;50.898;6.054;2023-07-02T07:29:37;29.42;;;16.40;;
59824;SDS011;45703;50.898;6.054;2023-07-02T07:32:03;32.13;;;17.45;;
59824;SDS011;45703;50.898;6.054;2023-07-02T07:34:28;31.60;;;17.17;;
59824;SDS011;45703;50.898;6.054;2023-07-02T07:36:54;35.55;;;17.08;;
59824;SDS011;45703;50.898;6.054;2023-07-02T07:39:19;31.75;;;16.58;;
59824;SDS011;45703;50.898;6.054;2023-07-02T07:41:47;36.42;;;17.60;;
59824;SDS011;45703;50.898;6.054;2023-07-02T07:44:16;29.90;;;17.77;;
59824;SDS011;45703;50.898;6.054;2023-07-02T07:46:41;30.83;;;17.70;;
59824;SDS011;45703;50.898;6.054;2023-07-02T07:49:06;31.63;;;17.38;;
59824;SDS011;45703;50.898;6.054;2023-07-02T07:51:32;31.55;;;16.52;;
59824;SDS011;45703;50.898;6.054;2023-07-02T07:53:57;30.48;;;15.43;;
59824;SDS011;45703;50.898;6.054;2023-07-02T07:56:22;35.72;;;17.38;;
59824;SDS011;45703;50.898;6.054;2023-07-02T07:58:48;31.13;;;16.50;;
59824;SDS011;45703;50.898;6.054;2023-07-02T08:01:13;34.13;;;17.60;;
59824;SDS011;45703;50.898;6.054;2023-07-02T08:03:39;30.05;;;17.00;;
59824;SDS011;45703;50.898;6.054;2023-07-02T08:06:04;30.70;;;16.27;;
59824;SDS011;45703;50.898;6.054;2023-07-02T08:08:30;31.83;;;17.10;;
59824;SDS011;45703;50.898;6.054;2023-07-02T08:10:55;27.80;;;16.00;;
59824;SDS011;45703;50.898;6.054;2023-07-02T08:13:20;28.08;;;16.80;;
59824;SDS011;45703;50.898;6.054;2023-07-02T08:15:46;30.08;;;15.88;;
59824;SDS011;45703;50.898;6.054;2023-07-02T08:18:11;27.67;;;16.33;;
59824;SDS011;45703;50.898;6.054;2023-07-02T08:20:38;33.30;;;16.13;;
59824;SDS011;45703;50.898;6.054;2023-07-02T08:23:11;27.98;;;16.17;;
59824;SDS011;45703;50.898;6.054;2023-07-02T08:25:42;31.08;;;16.73;;
59824;SDS011;45703;50.898;6.054;2023-07-02T08:28:08;29.92;;;15.23;;
59824;SDS011;45703;50.898;6.054;2023-07-02T08:30:33;30.00;;;16.23;;
59824;SDS011;45703;50.898;6.054;2023-07-02T08:32:58;28.52;;;16.17;;
59824;SDS011;45703;50.898;6.054;2023-07-02T08:35:29;31.15;;;16.13;;
59824;SDS011;45703;50.898;6.054;2023-07-02T08:37:55;27.83;;;15.90;;
59824;SDS011;45703;50.898;6.054;2023-07-02T08:40:21;29.08;;;16.83;;
59824;SDS011;45703;50.898;6.054;2023-07-02T08:42:47;27.48;;;16.05;;
59824;SDS011;45703;50.898;6.054;2023-07-02T08:45:14;30.77;;;15.63;;
59824;SDS011;45703;50.898;6.054;2023-07-02T08:47:41;30.30;;;17.08;;
59824;SDS011;45703;50.898;6.054;2023-07-02T08:50:06;31.35;;;16.02;;
59824;SDS011;45703;50.898;6.054;2023-07-02T08:52:32;34.67;;;17.00;;
59824;SDS011;45703;50.898;6.054;2023-07-02T08:54:58;28.35;;;15.07;;
59824;SDS011;45703;50.898;6.054;2023-07-02T08:57:23;33.58;;;17.45;;
59824;SDS011;45703;50.898;6.054;2023-07-02T08:59:48;29.35;;;16.95;;
59824;SDS011;45703;50.898;6.054;2023-07-02T09:02:16;31.60;;;16.55;;
59824;SDS011;45703;50.898;6.054;2023-07-02T09:04:41;31.40;;;17.08;;
59824;SDS011;45703;50.898;6.054;2023-07-02T09:09:34;27.48;;;16.10;;
59824;SDS011;45703;50.898;6.054;2023-07-02T09:12:22;26.88;;;16.33;;
59824;SDS011;45703;50.898;6.054;2023-07-02T09:14:54;30.90;;;16.73;;
59824;SDS011;45703;50.898;6.054;2023-07-02T09:17:21;25.27;;;15.35;;
59824;SDS011;45703;50.898;6.054;2023-07-02T09:19:50;29.08;;;14.77;;
59824;SDS011;45703;50.898;6.054;2023-07-02T09:22:17;26.67;;;15.18;;
59824;SDS011;45703;50.898;6.054;2023-07-02T09:24:50;24.80;;;14.25;;
59824;SDS011;45703;50.898;6.054;2023-07-02T09:27:17;26.90;;;14.23;;
59824;SDS011;45703;50.898;6.054;2023-07-02T09:29:42;28.88;;;14.20;;
59824;SDS011;45703;50.898;6.054;2023-07-02T09:32:07;29.10;;;13.93;;
59824;SDS011;45703;50.898;6.054;2023-07-02T09:34:33;26.10;;;13.45;;
59824;SDS011;45703;50.898;6.054;2023-07-02T09:37:01;23.48;;;13.90;;
59824;SDS011;45703;50.898;6.054;2023-07-02T09:39:30;26.33;;;13.32;;
59824;SDS011;45703;50.898;6.054;2023-07-02T09:41:58;26.40;;;12.88;;
59824;SDS011;45703;50.898;6.054;2023-07-02T09:44:28;24.55;;;12.43;;
59824;SDS011;45703;50.898;6.054;2023-07-02T09:47:00;25.35;;;12.35;;
59824;SDS011;45703;50.898;6.054;2023-07-02T09:49:33;24.45;;;11.98;;
59824;SDS011;45703;50.898;6.054;2023-07-02T09:52:02;23.73;;;12.03;;
59824;SDS011;45703;50.898;6.054;2023-07-02T09:54:32;24.15;;;12.15;;
59824;SDS011;45703;50.898;6.054;2023-07-02T09:56:58;20.48;;;11.32;;
59824;SDS011;45703;50.898;6.054;2023-07-02T09:59:25;23.50;;;12.52;;
59824;SDS011;45703;50.898;6.054;2023-07-02T10:01:51;24.27;;;12.43;;
59824;SDS011;45703;50.898;6.054;2023-07-02T10:04:17;24.70;;;12.50;;
59824;SDS011;45703;50.898;6.054;2023-07-02T10:06:54;24.27;;;11.93;;
59824;SDS011;45703;50.898;6.054;2023-07-02T10:09:21;21.92;;;11.90;;
59824;SDS011;45703;50.898;6.054;2023-07-02T10:12:00;27.77;;;13.32;;
59824;SDS011;45703;50.898;6.054;2023-07-02T10:14:25;23.58;;;11.52;;
59824;SDS011;45703;50.898;6.054;2023-07-02T10:16:51;21.80;;;11.27;;
59824;SDS011;45703;50.898;6.054;2023-07-02T10:19:18;21.60;;;11.55;;
59824;SDS011;45703;50.898;6.054;2023-07-02T10:21:44;19.20;;;10.50;;
59824;SDS011;45703;50.898;6.054;2023-07-02T10:24:17;20.23;;;10.73;;
59824;SDS011;45703;50.898;6.054;2023-07-02T10:26:55;23.73;;;11.63;;
59824;SDS011;45703;50.898;6.054;2023-07-02T10:29:22;20.45;;;10.07;;
59824;SDS011;45703;50.898;6.054;2023-07-02T10:31:53;19.30;;;10.25;;
59824;SDS011;45703;50.898;6.054;2023-07-02T10:34:35;20.45;;;10.20;;
59824;SDS011;45703;50.898;6.054;2023-07-02T10:37:03;22.55;;;10.00;;
59824;SDS011;45703;50.898;6.054;2023-07-02T10:39:30;20.08;;;8.90;;
59824;SDS011;45703;50.898;6.054;2023-07-02T10:42:06;19.17;;;9.25;;
59824;SDS011;45703;50.898;6.054;2023-07-02T10:44:32;23.30;;;10.25;;
59824;SDS011;45703;50.898;6.054;2023-07-02T10:46:58;18.88;;;9.77;;
59824;SDS011;45703;50.898;6.054;2023-07-02T10:49:29;18.45;;;9.43;;
59824;SDS011;45703;50.898;6.054;2023-07-02T10:51:57;20.88;;;9.80;;
59824;SDS011;45703;50.898;6.054;2023-07-02T10:54:26;18.53;;;9.57;;
59824;SDS011;45703;50.898;6.054;2023-07-02T10:57:00;19.20;;;9.57;;
59824;SDS011;45703;50.898;6.054;2023-07-02T10:59:26;21.02;;;8.80;;
59824;SDS011;45703;50.898;6.054;2023-07-02T11:01:51;19.50;;;8.95;;
59824;SDS011;45703;50.898;6.054;2023-07-02T11:04:17;19.13;;;8.88;;
59824;SDS011;45703;50.898;6.054;2023-07-02T11:06:42;16.75;;;8.10;;
59824;SDS011;45703;50.898;6.054;2023-07-02T11:09:17;14.18;;;7.63;;
59824;SDS011;45703;50.898;6.054;2023-07-02T11:11:49;16.25;;;7.68;;
59824;SDS011;45703;50.898;6.054;2023-07-02T11:14:34;14.57;;;6.90;;
59824;SDS011;45703;50.898;6.054;2023-07-02T11:17:04;16.90;;;7.30;;
59824;SDS011;45703;50.898;6.054;2023-07-02T11:19:34;17.13;;;8.00;;
59824;SDS011;45703;50.898;6.054;2023-07-02T11:22:00;14.55;;;7.50;;
59824;SDS011;45703;50.898;6.054;2023-07-02T11:27:00;18.95;;;8.52;;
59824;SDS011;45703;50.898;6.054;2023-07-02T11:29:30;14.35;;;7.82;;
59824;SDS011;45703;50.898;6.054;2023-07-02T11:32:08;18.60;;;9.07;;
59824;SDS011;45703;50.898;6.054;2023-07-02T11:34:36;16.50;;;9.00;;
59824;SDS011;45703;50.898;6.054;2023-07-02T11:37:02;16.27;;;8.85;;
59824;SDS011;45703;50.898;6.054;2023-07-02T11:39:29;17.98;;;8.73;;
59824;SDS011;45703;50.898;6.054;2023-07-02T11:41:55;20.63;;;9.52;;
59824;SDS011;45703;50.898;6.054;2023-07-02T11:44:20;17.27;;;8.95;;
59824;SDS011;45703;50.898;6.054;2023-07-02T11:46:46;19.17;;;9.73;;
59824;SDS011;45703;50.898;6.054;2023-07-02T11:49:12;19.90;;;9.60;;
59824;SDS011;45703;50.898;6.054;2023-07-02T11:51:38;19.33;;;9.52;;
59824;SDS011;45703;50.898;6.054;2023-07-02T11:54:05;18.08;;;9.23;;
59824;SDS011;45703;50.898;6.054;2023-07-02T11:56:31;20.00;;;10.52;;
59824;SDS011;45703;50.898;6.054;2023-07-02T11:58:57;20.00;;;9.23;;
59824;SDS011;45703;50.898;6.054;2023-07-02T12:01:23;18.52;;;9.95;;
59824;SDS011;45703;50.898;6.054;2023-07-02T12:03:48;19.52;;;9.40;;
59824;SDS011;45703;50.898;6.054;2023-07-02T12:06:13;19.25;;;9.60;;
59824;SDS011;45703;50.898;6.054;2023-07-02T12:08:39;18.30;;;9.75;;
59824;SDS011;45703;50.898;6.054;2023-07-02T12:11:04;20.65;;;8.68;;
59824;SDS011;45703;50.898;6.054;2023-07-02T12:13:29;21.88;;;10.85;;
59824;SDS011;45703;50.898;6.054;2023-07-02T12:15:55;20.05;;;9.90;;
59824;SDS011;45703;50.898;6.054;2023-07-02T12:18:20;20.50;;;10.05;;
59824;SDS011;45703;50.898;6.054;2023-07-02T12:20:46;17.25;;;8.80;;
59824;SDS011;45703;50.898;6.054;2023-07-02T12:23:11;18.52;;;9.88;;
59824;SDS011;45703;50.898;6.054;2023-07-02T12:25:37;18.30;;;9.57;;
59824;SDS011;45703;50.898;6.054;2023-07-02T12:28:03;18.70;;;9.27;;
59824;SDS011;45703;50.898;6.054;2023-07-02T12:30:29;20.08;;;10.10;;
59824;SDS011;45703;50.898;6.054;2023-07-02T12:32:55;18.02;;;9.30;;
59824;SDS011;45703;50.898;6.054;2023-07-02T12:35:20;21.23;;;9.35;;
59824;SDS011;45703;50.898;6.054;2023-07-02T12:37:46;20.05;;;9.75;;
59824;SDS011;45703;50.898;6.054;2023-07-02T12:40:14;18.70;;;9.73;;
59824;SDS011;45703;50.898;6.054;2023-07-02T12:42:40;17.60;;;8.95;;
59824;SDS011;45703;50.898;6.054;2023-07-02T12:45:07;22.00;;;10.18;;
59824;SDS011;45703;50.898;6.054;2023-07-02T12:47:33;16.85;;;8.85;;
59824;SDS011;45703;50.898;6.054;2023-07-02T12:49:58;20.73;;;9.70;;
59824;SDS011;45703;50.898;6.054;2023-07-02T12:52:23;20.63;;;9.82;;
59824;SDS011;45703;50.898;6.054;2023-07-02T12:54:49;19.13;;;9.15;;
59824;SDS011;45703;50.898;6.054;2023-07-02T12:57:14;20.08;;;10.63;;
59824;SDS011;45703;50.898;6.054;2023-07-02T12:59:40;18.20;;;9.68;;
59824;SDS011;45703;50.898;6.054;2023-07-02T13:02:05;18.35;;;9.45;;
59824;SDS011;45703;50.898;6.054;2023-07-02T13:04:31;18.60;;;10.32;;
59824;SDS011;45703;50.898;6.054;2023-07-02T13:06:56;18.40;;;10.27;;
59824;SDS011;45703;50.898;6.054;2023-07-02T13:09:22;18.10;;;9.68;;
59824;SDS011;45703;50.898;6.054;2023-07-02T13:11:47;21.05;;;9.50;;
59824;SDS011;45703;50.898;6.054;2023-07-02T13:14:13;18.90;;;9.75;;
59824;SDS011;45703;50.898;6.054;2023-07-02T13:16:38;17.88;;;9.18;;
59824;SDS011;45703;50.898;6.054;2023-07-02T13:19:04;18.52;;;9.88;;
59824;SDS011;45703;50.898;6.054;2023-07-02T13:21:29;20.83;;;9.93;;
59824;SDS011;45703;50.898;6.054;2023-07-02T13:23:54;18.38;;;9.52;;
59824;SDS011;45703;50.898;6.054;2023-07-02T13:26:20;17.80;;;10.15;;
59824;SDS011;45703;50.898;6.054;2023-07-02T13:28:45;18.50;;;9.90;;
59824;SDS011;45703;50.898;6.054;2023-07-02T13:31:13;19.17;;;9.25;;
59824;SDS011;45703;50.898;6.054;2023-07-02T13:33:39;18.25;;;9.75;;
59824;SDS011;45703;50.898;6.054;2023-07-02T13:36:05;16.98;;;9.38;;
59824;SDS011;45703;50.898;6.054;2023-07-02T13:38:31;20.95;;;10.20;;
59824;SDS011;45703;50.898;6.054;2023-07-02T13:40:57;16.80;;;9.38;;
59824;SDS011;45703;50.898;6.054;2023-07-02T13:43:28;16.95;;;9.52;;
59824;SDS011;45703;50.898;6.054;2023-07-02T13:45:53;18.50;;;9.65;;
59824;SDS011;45703;50.898;6.054;2023-07-02T13:48:19;18.02;;;9.73;;
59824;SDS011;45703;50.898;6.054;2023-07-02T13:50:47;17.05;;;9.60;;
59824;SDS011;45703;50.898;6.054;2023-07-02T13:53:12;19.63;;;9.82;;
59824;SDS011;45703;50.898;6.054;2023-07-02T13:55:38;19.92;;;9.93;;
59824;SDS011;45703;50.898;6.054;2023-07-02T13:58:03;16.20;;;9.52;;
59824;SDS011;45703;50.898;6.054;2023-07-02T14:00:29;17.48;;;9.57;;
59824;SDS011;45703;50.898;6.054;2023-07-02T14:02:54;20.75;;;10.52;;
59824;SDS011;45703;50.898;6.054;2023-07-02T14:05:21;18.42;;;9.85;;
59824;SDS011;45703;50.898;6.054;2023-07-02T14:07:47;17.63;;;10.00;;
59824;SDS011;45703;50.898;6.054;2023-07-02T14:10:12;18.48;;;9.43;;
59824;SDS011;45703;50.898;6.054;2023-07-02T14:12:38;18.63;;;9.18;;
59824;SDS011;45703;50.898;6.054;2023-07-02T14:15:04;19.15;;;9.95;;
59824;SDS011;45703;50.898;6.054;2023-07-02T14:17:30;19.88;;;10.45;;
59824;SDS011;45703;50.898;6.054;2023-07-02T14:19:56;18.23;;;9.98;;
59824;SDS011;45703;50.898;6.054;2023-07-02T14:22:21;19.52;;;9.75;;
59824;SDS011;45703;50.898;6.054;2023-07-02T14:24:46;17.63;;;9.30;;
59824;SDS011;45703;50.898;6.054;2023-07-02T14:27:12;21.00;;;10.10;;